createdAt,value
2023-01-03T00:00:42.071Z,102266.84
2023-01-03T00:03:12.294Z,102259.81
2023-01-03T00:05:42.623Z,102267.66
2023-01-03T00:08:10.611Z,102266.84
2023-01-03T00:10:38.822Z,102266.84
2023-01-03T00:13:06.876Z,102271.22
2023-01-03T00:15:35.813Z,102278.50
2023-01-03T00:18:06.253Z,102278.22
2023-01-03T00:20:35.213Z,102274.16
2023-01-03T00:23:03.299Z,102273.06
2023-01-03T00:25:31.174Z,102270.31
2023-01-03T00:27:59.035Z,102274.91
2023-01-03T00:30:26.932Z,102274.66
2023-01-03T00:32:54.893Z,102277.31
2023-01-03T00:35:24.273Z,102276.50
2023-01-03T00:37:52.225Z,102280.28
2023-01-03T00:40:20.052Z,102283.78
2023-01-03T00:43:05.313Z,102280.53
2023-01-03T00:45:35.534Z,102291.63
2023-01-03T00:48:03.738Z,102294.31
2023-01-03T00:50:33.006Z,102291.34
2023-01-03T00:53:00.877Z,102295.13
2023-01-03T00:55:28.681Z,102304.03
2023-01-03T00:57:56.462Z,102307.50
2023-01-03T01:00:24.494Z,102308.84
2023-01-03T01:02:54.794Z,102318.06
2023-01-03T01:05:23.391Z,102319.69
2023-01-03T01:07:52.636Z,102320.75
2023-01-03T01:10:20.748Z,102326.16
2023-01-03T01:12:48.630Z,102323.47
2023-01-03T01:15:16.455Z,102328.88
2023-01-03T01:17:44.354Z,102323.16
2023-01-03T01:20:13.787Z,102328.84
2023-01-03T01:22:41.737Z,102329.91
2023-01-03T01:25:11.213Z,102325.59
2023-01-03T01:27:39.160Z,102330.44
2023-01-03T01:30:10.481Z,102335.03
2023-01-03T01:32:38.216Z,102344.50
2023-01-03T01:35:06.643Z,102343.69
2023-01-03T01:37:34.521Z,102349.13
2023-01-03T01:40:03.210Z,102352.38
2023-01-03T01:42:49.900Z,102354.78
2023-01-03T01:45:17.779Z,102362.09
2023-01-03T01:47:51.932Z,102354.72
2023-01-03T01:50:25.304Z,102359.56
2023-01-03T01:52:58.872Z,102359.31
2023-01-03T01:55:36.784Z,102365.53
2023-01-03T01:58:07.544Z,102369.59
2023-01-03T02:00:36.236Z,102369.41
2023-01-03T02:03:05.037Z,102369.94
2023-01-03T02:05:37.484Z,102369.13
2023-01-03T02:08:06.228Z,102368.31
2023-01-03T02:10:47.278Z,102380.22
2023-01-03T02:13:25.724Z,102372.91
2023-01-03T02:16:19.759Z,102381.25
2023-01-03T02:18:54.968Z,102381.31
2023-01-03T02:21:59.538Z,102386.44
2023-01-03T02:25:15.921Z,102390.41
2023-01-03T02:28:16.894Z,102391.03
2023-01-03T02:30:53.182Z,102394.78
2023-01-03T02:33:28.463Z,102397.47
2023-01-03T02:36:06.855Z,102397.47
2023-01-03T02:38:48.033Z,102388.31
2023-01-03T02:41:25.478Z,102386.44
2023-01-03T02:43:56.740Z,102391.56
2023-01-03T02:46:31.923Z,102385.34
2023-01-03T02:49:06.788Z,102392.38
2023-01-03T02:51:38.285Z,102394.03
2023-01-03T02:54:11.608Z,102392.94
2023-01-03T02:56:45.290Z,102407.28
2023-01-03T02:59:16.910Z,102398.91
2023-01-03T03:01:50.160Z,102393.81
2023-01-03T03:04:19.634Z,102392.72
2023-01-03T03:06:53.526Z,102397.06
2023-01-03T03:09:21.374Z,102393.28
2023-01-03T03:12:07.561Z,102391.13
2023-01-03T03:14:40.649Z,102389.50
2023-01-03T03:17:14.887Z,102394.94
2023-01-03T03:20:06.028Z,102399.75
2023-01-03T03:22:57.088Z,102400.84
2023-01-03T03:25:28.811Z,102407.31
2023-01-03T03:28:17.855Z,102398.66
2023-01-03T03:30:49.159Z,102396.78
2023-01-03T03:33:21.487Z,102405.97
2023-01-03T03:35:55.743Z,102400.28
2023-01-03T03:38:28.825Z,102398.66
2023-01-03T03:41:27.938Z,102398.63
2023-01-03T03:44:22.585Z,102399.34
2023-01-03T03:46:57.310Z,102396.34
2023-01-03T03:49:41.033Z,102402.84
2023-01-03T03:52:14.602Z,102396.84
2023-01-03T03:54:47.937Z,102402.78
2023-01-03T03:57:22.118Z,102392.50
2023-01-03T03:59:54.608Z,102402.41
2023-01-03T04:02:24.283Z,102401.53
2023-01-03T04:04:58.103Z,102401.78
2023-01-03T04:07:26.384Z,102405.56
2023-01-03T04:09:54.307Z,102406.38
2023-01-03T04:12:22.338Z,102413.94
2023-01-03T04:14:50.272Z,102414.44
2023-01-03T04:17:20.092Z,102413.34
2023-01-03T04:19:48.011Z,102421.66
2023-01-03T04:22:17.390Z,102423.34
2023-01-03T04:24:45.331Z,102412.53
2023-01-03T04:27:13.170Z,102417.13
2023-01-03T04:29:41.822Z,102414.91
2023-01-03T04:32:10.259Z,102418.69
2023-01-03T04:34:38.271Z,102422.47
2023-01-03T04:37:06.203Z,102415.09
2023-01-03T04:39:37.533Z,102415.88
2023-01-03T04:42:25.823Z,102418.53
2023-01-03T04:44:53.051Z,102413.06
2023-01-03T04:47:21.047Z,102413.00
2023-01-03T04:49:49.543Z,102418.91
2023-01-03T04:52:17.872Z,102418.34
2023-01-03T04:54:47.312Z,102422.63
2023-01-03T04:57:15.142Z,102418.28
2023-01-03T04:59:43.108Z,102423.69
2023-01-03T05:02:11.196Z,102423.69
2023-01-03T05:04:39.354Z,102429.09
2023-01-03T05:07:07.644Z,102428.28
2023-01-03T05:09:35.591Z,102430.72
2023-01-03T05:12:05.188Z,102426.13
2023-01-03T05:14:33.185Z,102422.63
2023-01-03T05:17:01.188Z,102422.63
2023-01-03T05:19:29.121Z,102425.31
2023-01-03T05:22:14.541Z,102426.41
2023-01-03T05:25:03.092Z,102426.31
2023-01-03T05:27:33.515Z,102417.66
2023-01-03T05:30:02.329Z,102422.78
2023-01-03T05:32:30.307Z,102424.88
2023-01-03T05:34:58.150Z,102425.69
2023-01-03T05:37:28.578Z,102412.44
2023-01-03T05:39:56.397Z,102425.13
2023-01-03T05:42:24.426Z,102422.44
2023-01-03T05:44:53.761Z,102417.03
2023-01-03T05:47:22.152Z,102426.94
2023-01-03T05:49:50.001Z,102420.19
2023-01-03T05:52:18.098Z,102429.34
2023-01-03T05:54:46.018Z,102419.63
2023-01-03T05:57:14.031Z,102424.22
2023-01-03T05:59:41.939Z,102426.56
2023-01-03T06:02:11.335Z,102427.91
2023-01-03T06:04:39.479Z,102431.41
2023-01-03T06:07:07.316Z,102415.78
2023-01-03T06:09:35.459Z,102406.06
2023-01-03T06:12:03.410Z,102413.34
2023-01-03T06:14:31.242Z,102420.03
2023-01-03T06:17:16.689Z,102418.41
2023-01-03T06:19:46.087Z,102411.88
2023-01-03T06:22:13.975Z,102411.63
2023-01-03T06:24:41.986Z,102423.81
2023-01-03T06:27:09.870Z,102429.19
2023-01-03T06:29:37.853Z,102430.03
2023-01-03T06:32:09.570Z,102429.19
2023-01-03T06:34:37.813Z,102427.56
2023-01-03T06:37:07.299Z,102423.50
2023-01-03T06:39:35.188Z,102428.09
2023-01-03T06:42:23.231Z,102432.66
2023-01-03T06:45:05.123Z,102432.34
2023-01-03T06:47:50.743Z,102423.69
2023-01-03T06:50:36.466Z,102412.06
2023-01-03T06:53:14.677Z,102415.03
2023-01-03T06:55:44.445Z,102414.44
2023-01-03T06:58:13.315Z,102424.66
2023-01-03T07:00:45.642Z,102416.00
2023-01-03T07:03:13.531Z,102417.91
2023-01-03T07:05:41.586Z,102415.19
2023-01-03T07:08:10.812Z,102414.88
2023-01-03T07:10:38.670Z,102421.34
2023-01-03T07:13:23.709Z,102414.31
2023-01-03T07:15:51.836Z,102411.88
2023-01-03T07:18:20.030Z,102418.34
2023-01-03T07:20:47.933Z,102420.44
2023-01-03T07:23:17.083Z,102418.00
2023-01-03T07:25:45.081Z,102423.91
2023-01-03T07:28:15.010Z,102422.25
2023-01-03T07:30:44.541Z,102426.59
2023-01-03T07:33:14.886Z,102426.34
2023-01-03T07:35:42.973Z,102409.09
2023-01-03T07:38:12.689Z,102404.50
2023-01-03T07:40:42.170Z,102409.34
2023-01-03T07:43:28.271Z,102396.91
2023-01-03T07:45:56.215Z,102395.75
2023-01-03T07:48:24.092Z,102400.84
2023-01-03T07:50:57.350Z,102411.31
2023-01-03T07:53:25.523Z,102417.22
2023-01-03T07:55:54.978Z,102410.16
2023-01-03T07:58:23.036Z,102423.66
2023-01-03T08:00:51.089Z,102424.97
2023-01-03T08:03:19.431Z,102432.81
2023-01-03T08:05:47.452Z,102430.13
2023-01-03T08:08:15.287Z,102429.88
2023-01-03T08:11:00.514Z,102435.03
2023-01-03T08:13:29.770Z,102426.94
2023-01-03T08:15:58.233Z,102434.53
2023-01-03T08:18:27.788Z,102429.69
2023-01-03T08:20:57.515Z,102421.94
2023-01-03T08:23:26.899Z,102429.28
2023-01-03T08:26:01.254Z,102437.13
2023-01-03T08:28:30.859Z,102437.44
2023-01-03T08:30:59.564Z,102435.34
2023-01-03T08:33:29.511Z,102424.03
2023-01-03T08:36:01.718Z,102425.19
2023-01-03T08:38:35.639Z,102417.13
2023-01-03T08:41:06.368Z,102419.91
2023-01-03T08:43:38.068Z,102424.31
2023-01-03T08:46:09.186Z,102423.81
2023-01-03T08:48:37.244Z,102431.16
2023-01-03T08:51:05.744Z,102429.84
2023-01-03T08:53:36.049Z,102429.34
2023-01-03T08:56:04.321Z,102435.06
2023-01-03T08:58:32.331Z,102433.75
2023-01-03T09:01:04.167Z,102435.44
2023-01-03T09:03:32.295Z,102432.25
2023-01-03T09:06:01.888Z,102422.53
2023-01-03T09:08:31.190Z,102429.09
2023-01-03T09:10:59.467Z,102432.34
2023-01-03T09:13:27.463Z,102428.09
2023-01-03T09:16:03.320Z,102436.50
2023-01-03T09:18:31.271Z,102442.78
2023-01-03T09:20:59.252Z,102439.31
2023-01-03T09:23:27.271Z,102440.94
2023-01-03T09:25:55.138Z,102446.66
2023-01-03T09:28:23.244Z,102446.16
2023-01-03T09:30:51.449Z,102453.19
2023-01-03T09:33:20.747Z,102454.06
2023-01-03T09:35:48.771Z,102458.69
2023-01-03T09:38:16.816Z,102456.63
2023-01-03T09:40:46.666Z,102463.22
2023-01-03T09:43:24.758Z,102460.88
2023-01-03T09:45:55.218Z,102455.53
2023-01-03T09:48:33.777Z,102460.28
2023-01-03T09:51:22.526Z,102466.03
2023-01-03T09:54:08.225Z,102468.78
2023-01-03T09:56:53.410Z,102470.16
2023-01-03T09:59:38.801Z,102465.56
2023-01-03T10:02:48.077Z,102472.09
2023-01-03T10:05:37.099Z,102470.22
2023-01-03T10:08:24.360Z,102467.81
2023-01-03T10:11:02.070Z,102463.28
2023-01-03T10:13:41.814Z,102467.59
2023-01-03T10:16:16.588Z,102462.47
2023-01-03T10:19:02.244Z,102461.16
2023-01-03T10:21:38.624Z,102458.72
2023-01-03T10:24:19.241Z,102460.38
2023-01-03T10:26:49.862Z,102463.66
2023-01-03T10:29:19.913Z,102456.66
2023-01-03T10:32:04.416Z,102453.19
2023-01-03T10:34:32.360Z,102461.31
2023-01-03T10:37:02.558Z,102462.44
2023-01-03T10:39:33.111Z,102459.19
2023-01-03T10:42:01.414Z,102445.13
2023-01-03T10:44:31.722Z,102449.50
2023-01-03T10:47:01.237Z,102450.06
2023-01-03T10:49:31.069Z,102446.53
2023-01-03T10:52:03.845Z,102444.63
2023-01-03T10:54:49.824Z,102453.34
2023-01-03T10:57:43.617Z,102446.31
2023-01-03T11:00:30.599Z,102436.53
2023-01-03T11:03:11.601Z,102443.88
2023-01-03T11:05:40.891Z,102449.00
2023-01-03T11:08:18.746Z,102431.44
2023-01-03T11:10:56.307Z,102436.56
2023-01-03T11:13:35.464Z,102444.16
2023-01-03T11:16:13.591Z,102426.28
2023-01-03T11:18:43.015Z,102433.91
2023-01-03T11:21:17.925Z,102435.53
2023-01-03T11:24:03.655Z,102438.22
2023-01-03T11:26:45.308Z,102441.78
2023-01-03T11:29:25.145Z,102440.44
2023-01-03T11:32:00.999Z,102436.13
2023-01-03T11:35:22.397Z,102441.53
2023-01-03T11:37:53.064Z,102426.38
2023-01-03T11:40:29.820Z,102429.09
2023-01-03T11:43:14.438Z,102423.69
2023-01-03T11:45:55.132Z,102418.00
2023-01-03T11:48:47.124Z,102422.06
2023-01-03T11:51:21.071Z,102415.28
2023-01-03T11:54:06.070Z,102409.34
2023-01-03T11:56:39.468Z,102403.38
2023-01-03T11:59:40.155Z,102403.38
2023-01-03T12:02:44.416Z,102396.63
2023-01-03T12:05:37.835Z,102383.88
2023-01-03T12:08:22.754Z,102378.47
2023-01-03T12:10:57.031Z,102386.88
2023-01-03T12:13:33.914Z,102377.09
2023-01-03T12:16:08.698Z,102376.59
2023-01-03T12:18:50.990Z,102373.84
2023-01-03T12:21:25.939Z,102373.31
2023-01-03T12:24:02.420Z,102378.75
2023-01-03T12:26:31.503Z,102369.00
2023-01-03T12:29:06.909Z,102364.38
2023-01-03T12:31:40.140Z,102357.88
2023-01-03T12:34:19.540Z,102358.69
2023-01-03T12:36:58.080Z,102366.81
2023-01-03T12:39:37.995Z,102352.72
2023-01-03T12:42:11.905Z,102361.41
2023-01-03T12:44:45.540Z,102366.84
2023-01-03T12:47:30.140Z,102369.53
2023-01-03T12:50:04.771Z,102363.84
2023-01-03T12:52:35.365Z,102358.69
2023-01-03T12:55:10.064Z,102360.31
2023-01-03T12:57:59.206Z,102360.88
2023-01-03T13:00:41.033Z,102353.28
2023-01-03T13:03:19.042Z,102350.84
2023-01-03T13:05:50.873Z,102354.34
2023-01-03T13:08:31.157Z,102360.56
2023-01-03T13:11:04.191Z,102355.97
2023-01-03T13:13:34.124Z,102353.25
2023-01-03T13:16:41.054Z,102347.84
2023-01-03T13:19:51.605Z,102350.56
2023-01-03T13:22:52.055Z,102344.28
2023-01-03T13:25:41.418Z,102348.38
2023-01-03T13:28:31.324Z,102351.09
2023-01-03T13:31:43.894Z,102341.84
2023-01-03T13:34:31.662Z,102348.91
2023-01-03T13:37:24.205Z,102341.84
2023-01-03T13:40:21.925Z,102338.34
2023-01-03T13:43:01.744Z,102336.97
2023-01-03T13:46:01.131Z,102332.91
2023-01-03T13:48:32.621Z,102326.63
2023-01-03T13:51:30.188Z,102325.00
2023-01-03T13:54:04.579Z,102320.91
2023-01-03T13:56:34.041Z,102327.16
2023-01-03T13:59:13.447Z,102325.28
2023-01-03T14:02:02.148Z,102331.53
2023-01-03T14:05:01.102Z,102328.81
2023-01-03T14:07:52.247Z,102338.88
2023-01-03T14:10:37.312Z,102340.22
2023-01-03T14:13:22.598Z,102343.19
2023-01-03T14:15:52.965Z,102341.28
2023-01-03T14:18:25.599Z,102338.59
2023-01-03T14:20:55.418Z,102341.28
2023-01-03T14:26:18.026Z,102346.19
2023-01-03T14:28:49.997Z,102341.84
2023-01-03T14:31:21.273Z,102346.47
2023-01-03T14:33:54.497Z,102339.66
2023-01-03T14:36:22.419Z,102344.28
2023-01-03T14:38:53.314Z,102355.16
2023-01-03T14:41:40.147Z,102345.09
2023-01-03T14:44:16.229Z,102349.72
2023-01-03T14:46:53.269Z,102351.06
2023-01-03T14:49:24.036Z,102349.44
2023-01-03T14:51:54.703Z,102358.13
2023-01-03T14:54:24.215Z,102355.44
2023-01-03T14:56:52.085Z,102359.19
2023-01-03T14:59:23.296Z,102362.75
2023-01-03T15:01:51.885Z,102357.59
2023-01-03T15:04:19.906Z,102362.47
2023-01-03T15:07:06.560Z,102359.75
2023-01-03T15:09:42.284Z,102363.56
2023-01-03T15:12:10.206Z,102367.63
2023-01-03T15:14:39.998Z,102367.34
2023-01-03T15:17:14.708Z,102366.81
2023-01-03T15:19:49.581Z,102365.19
2023-01-03T15:22:21.561Z,102364.09
2023-01-03T15:24:54.897Z,102361.09
2023-01-03T15:27:43.602Z,102365.75
2023-01-03T15:30:21.041Z,102367.94
2023-01-03T15:33:00.976Z,102363.59
2023-01-03T15:35:36.953Z,102359.50
2023-01-03T15:38:09.179Z,102357.88
2023-01-03T15:40:40.334Z,102361.41
2023-01-03T15:43:23.596Z,102354.34
2023-01-03T15:46:01.814Z,102356.75
2023-01-03T15:48:31.621Z,102357.06
2023-01-03T15:50:59.757Z,102348.38
2023-01-03T15:53:30.921Z,102357.59
2023-01-03T15:56:04.269Z,102354.31
2023-01-03T15:58:33.552Z,102355.69
2023-01-03T16:01:02.107Z,102347.81
2023-01-03T16:03:33.100Z,102347.81
2023-01-03T16:06:01.157Z,102339.69
2023-01-03T16:08:32.315Z,102337.25
2023-01-03T16:11:03.467Z,102345.09
2023-01-03T16:13:38.278Z,102356.50
2023-01-03T16:16:08.637Z,102345.09
2023-01-03T16:18:40.137Z,102355.38
2023-01-03T16:21:08.101Z,102347.81
2023-01-03T16:23:36.383Z,102345.34
2023-01-03T16:26:06.202Z,102343.44
2023-01-03T16:28:34.110Z,102353.22
2023-01-03T16:31:04.310Z,102344.53
2023-01-03T16:33:35.612Z,102340.72
2023-01-03T16:36:04.133Z,102335.84
2023-01-03T16:38:34.162Z,102336.38
2023-01-03T16:41:02.165Z,102327.72
2023-01-03T16:43:31.585Z,102333.41
2023-01-03T16:46:00.759Z,102338.53
2023-01-03T16:48:39.281Z,102328.75
2023-01-03T16:51:07.463Z,102332.81
2023-01-03T16:53:38.716Z,102328.22
2023-01-03T16:56:08.456Z,102329.84
2023-01-03T16:58:37.630Z,102342.28
2023-01-03T17:01:06.306Z,102332.03
2023-01-03T17:03:41.274Z,102328.22
2023-01-03T17:06:22.995Z,102329.56
2023-01-03T17:08:51.139Z,102330.91
2023-01-03T17:11:19.297Z,102334.41
2023-01-03T17:13:49.529Z,102335.78
2023-01-03T17:16:19.563Z,102341.75
2023-01-03T17:18:47.555Z,102340.09
2023-01-03T17:21:24.098Z,102337.09
2023-01-03T17:23:53.901Z,102339.00
2023-01-03T17:26:23.769Z,102334.66
2023-01-03T17:28:54.515Z,102339.53
2023-01-03T17:31:24.084Z,102336.81
2023-01-03T17:33:53.028Z,102336.81
2023-01-03T17:36:25.341Z,102330.28
2023-01-03T17:38:54.792Z,102331.38
2023-01-03T17:41:25.181Z,102325.41
2023-01-03T17:43:54.526Z,102328.66
2023-01-03T17:46:41.533Z,102320.53
2023-01-03T17:49:26.921Z,102322.16
2023-01-03T17:51:58.634Z,102318.94
2023-01-03T17:54:29.808Z,102321.66
2023-01-03T17:56:59.482Z,102318.38
2023-01-03T17:59:29.253Z,102321.09
2023-01-03T18:01:57.759Z,102321.09
2023-01-03T18:04:44.079Z,102321.09
2023-01-03T18:07:20.991Z,102323.25
2023-01-03T18:09:50.086Z,102317.28
2023-01-03T18:12:21.033Z,102315.09
2023-01-03T18:14:51.173Z,102312.38
2023-01-03T18:17:28.338Z,102319.69
2023-01-03T18:19:56.903Z,102307.53
2023-01-03T18:22:25.076Z,102311.06
2023-01-03T18:24:54.383Z,102305.66
2023-01-03T18:27:23.993Z,102309.69
2023-01-03T18:29:53.322Z,102305.88
2023-01-03T18:32:28.495Z,102308.88
2023-01-03T18:34:56.679Z,102301.28
2023-01-03T18:37:28.119Z,102300.78
2023-01-03T18:39:56.322Z,102302.69
2023-01-03T18:42:41.568Z,102291.88
2023-01-03T18:45:13.493Z,102295.38
2023-01-03T18:47:41.389Z,102294.56
2023-01-03T18:50:13.577Z,102285.34
2023-01-03T18:52:42.278Z,102279.91
2023-01-03T18:55:16.769Z,102264.22
2023-01-03T18:57:45.050Z,102253.91
2023-01-03T19:00:25.805Z,102256.06
2023-01-03T19:02:54.714Z,102250.66
2023-01-03T19:05:23.006Z,102257.16
2023-01-03T19:07:52.859Z,102251.75
2023-01-03T19:10:23.434Z,102247.94
2023-01-03T19:12:53.336Z,102240.34
2023-01-03T19:15:25.471Z,102220.31
2023-01-03T19:17:53.594Z,102219.22
2023-01-03T19:20:26.477Z,102219.22
2023-01-03T19:22:55.874Z,102211.09
2023-01-03T19:25:27.334Z,102210.56
2023-01-03T19:27:57.256Z,102205.16
2023-01-03T19:30:37.153Z,102197.56
2023-01-03T19:33:06.927Z,102204.09
2023-01-03T19:35:34.901Z,102197.31
2023-01-03T19:38:03.096Z,102198.13
2023-01-03T19:40:34.216Z,102194.06
2023-01-03T19:43:02.635Z,102201.63
2023-01-03T19:45:35.714Z,102200.81
2023-01-03T19:48:05.840Z,102197.03
2023-01-03T19:50:35.812Z,102197.56
2023-01-03T19:53:06.320Z,102203.81
2023-01-03T19:55:39.078Z,102206.78
2023-01-03T19:58:16.732Z,102204.34
2023-01-03T20:00:48.565Z,102200.28
2023-01-03T20:03:27.018Z,102200.81
2023-01-03T20:05:55.521Z,102208.97
2023-01-03T20:08:23.476Z,102201.38
2023-01-03T20:10:52.652Z,102194.34
2023-01-03T20:13:26.284Z,102197.59
2023-01-03T20:16:00.487Z,102204.34
2023-01-03T20:18:34.383Z,102191.09
2023-01-03T20:21:06.426Z,102189.72
2023-01-03T20:23:41.640Z,102183.75
2023-01-03T20:26:19.055Z,102173.75
2023-01-03T20:28:46.946Z,102160.75
2023-01-03T20:31:20.279Z,102135.84
2023-01-03T20:33:48.867Z,102133.66
2023-01-03T20:36:23.036Z,102134.75
2023-01-03T20:38:54.356Z,102135.00
2023-01-03T20:41:36.045Z,102148.28
2023-01-03T20:44:05.065Z,102143.66
2023-01-03T20:46:34.712Z,102132.84
2023-01-03T20:49:04.323Z,102137.97
2023-01-03T20:51:32.439Z,102145.31
2023-01-03T20:54:00.439Z,102140.16
2023-01-03T20:56:29.612Z,102134.75
2023-01-03T20:58:58.390Z,102138.00
2023-01-03T21:01:26.414Z,102138.28
2023-01-03T21:03:56.213Z,102138.53
2023-01-03T21:06:26.889Z,102135.00
2023-01-03T21:08:56.753Z,102123.34
2023-01-03T21:11:26.354Z,102116.59
2023-01-03T21:13:54.533Z,102119.00
2023-01-03T21:16:34.379Z,102127.13
2023-01-03T21:19:06.202Z,102121.19
2023-01-03T21:21:34.857Z,102103.31
2023-01-03T21:24:03.093Z,102099.28
2023-01-03T21:26:31.211Z,102106.00
2023-01-03T21:28:59.551Z,102104.38
2023-01-03T21:31:27.859Z,102100.06
2023-01-03T21:33:55.980Z,102104.94
2023-01-03T21:36:27.859Z,102095.75
2023-01-03T21:38:56.444Z,102092.22
2023-01-03T21:41:26.301Z,102082.47
2023-01-03T21:43:56.639Z,102085.47
2023-01-03T21:46:25.466Z,102080.88
2023-01-03T21:48:53.753Z,102073.53
2023-01-03T21:51:33.430Z,102067.63
2023-01-03T21:54:07.918Z,102071.41
2023-01-03T21:56:45.361Z,102060.28
2023-01-03T21:59:14.257Z,102062.47
2023-01-03T22:01:57.679Z,102061.09
2023-01-03T22:04:25.731Z,102052.69
2023-01-03T22:07:00.682Z,102046.47
2023-01-03T22:09:49.138Z,102054.59
2023-01-03T22:12:17.393Z,102053.22
2023-01-03T22:14:45.321Z,102051.59
2023-01-03T22:17:13.537Z,102057.81
2023-01-03T22:19:41.648Z,102058.09
2023-01-03T22:22:09.635Z,102049.72
2023-01-03T22:24:38.875Z,102048.66
2023-01-03T22:27:06.741Z,102052.44
2023-01-03T22:29:34.670Z,102050.81
2023-01-03T22:32:02.569Z,102043.25
2023-01-03T22:34:30.606Z,102023.22
2023-01-03T22:36:58.598Z,102024.84
2023-01-03T22:39:26.639Z,102020.50
2023-01-03T22:41:57.463Z,102012.94
2023-01-03T22:44:25.454Z,102013.47
2023-01-03T22:46:53.364Z,102014.03
2023-01-03T22:49:21.315Z,102013.47
2023-01-03T22:51:49.140Z,102018.34
2023-01-03T22:54:16.975Z,102004.53
2023-01-03T22:56:44.841Z,102010.22
2023-01-03T22:59:14.031Z,102001.03
2023-01-03T23:01:42.005Z,101990.22
2023-01-03T23:04:10.131Z,101988.59
2023-01-03T23:06:37.924Z,101969.66
2023-01-03T23:09:06.287Z,101964.78
2023-01-03T23:11:52.358Z,101968.56
2023-01-03T23:14:23.351Z,101953.69
2023-01-03T23:16:53.358Z,101955.31
2023-01-03T23:19:23.317Z,101953.41
2023-01-03T23:21:52.186Z,101952.06
2023-01-03T23:24:22.436Z,101952.88
2023-01-03T23:26:51.180Z,101945.81
2023-01-03T23:29:19.628Z,101944.78
2023-01-03T23:31:48.930Z,101920.41
2023-01-03T23:34:16.898Z,101920.94
2023-01-03T23:36:45.012Z,101914.72
2023-01-03T23:39:13.538Z,101907.16
2023-01-03T23:41:41.378Z,101908.50
2023-01-03T23:44:09.381Z,101889.03
2023-01-03T23:46:37.168Z,101899.28
2023-01-03T23:49:06.539Z,101893.06
2023-01-03T23:51:34.371Z,101900.91
2023-01-03T23:54:02.237Z,101894.97
2023-01-03T23:56:30.077Z,101893.34
2023-01-03T23:58:57.911Z,101891.72
